Página principal
METAR-TAF:

METAR-TAF

Aeroportos :

Dundee, Escócia

latitude: 56-27N, longitude: 003-01W, altura: 4 m

Observação actual do tempo

O boletim foi feito há 30 minutos, às 06:20 UTC
Vento 10 kt de oes-noroeste
Temperatura 6°C
Humidade 87%
Pressão 1011 hPa
Visibilidade 10 km ou mais
Poucas nuvensa uma altura de 4200 ft

METAR: EGPN 280620Z 29010KT 9999 FEW042 06/04 Q1011

Hora: 06:50 (06:50 UTC)

Previsão

O boletim foi feito há 13 horas e 54 minutos, às 16:56 UTC
Previsão válida de 27 às 18 UTC a 27 às 21 UTC
Vento 12 kt de oeste
Visibilidade 10 km ou mais
Nuvens dispersasa uma altura de 3500 ft
Probabilidade 30% :
Temporariamente
de 27 às 18 UTC a 27 às 21 UTC
Vento 15 kt de oeste com rajadas de 28 kt
Visibilidade: 6000 m
aguaceiros de chuva,

TAF: EGPN 271656Z 2718/2721 26012KT 9999 SCT035 PROB30 TEMPO 2718/2721 26015G28KT 6000 SHRA

Observações e previsões do tempo de mais de 4000 aeroportos (mensagens METAR e TAF).

As estações disponíveis são os pontos amarelos e vermelhos sobre o mapa.

Mova o rato sobre o mapa para ver o nome da estação.

Depois clique no ponto para visualizar as observações e previsões meteorológicas.

Para alterar o mapa : clique nos botões verdes com uma cruz preta para aumentar o zoom; no botão verde com uma pitada de zoom; ou nas setas verdes para mapas adjacentes.


METAR-TAF: